Startpagina
METAR-TAF:

METAR-TAF

Vliegvelden :

Marshall Islands International Airport

Majuro, Marshalleilanden

breedte: 07-04N, lengte: 171-17E, hoogte: 2 m

Actueel weer

Dit bericht is 46 minuten geleden gemaakt, om 08:55 UTC
Wind 7 kt uit het westen
Temperatuur 29°C
Vochtigheid 79%
Druk 1010 hPa
Zicht: 24.1 km
Weinig wolken op 1400 ft
Verspreide wolken op 5000 ft
Gebroken wolken op 12000 ft
Geheel bewolkt op 30000 ft

METAR: PKMJ 190855Z 26007KT 15SM FEW014 SCT050 BKN120 OVC300 29/25 A2982

Tijdstip: 21:41 (09:41 UTC)

Verwachting

Dit bericht is 4 uur en het 5 minuten geleden gemaakt, om 05:36 UTC
Verwachting geldig van 19 om 06 UTC tot 20 om 06 UTC
Wind 9 kt uit het zuidwesten
Zicht: 10 km
Verspreide wolken op 1500 ft
Gebroken wolken op 5000 ft
Gebroken wolken op 12000 ft
buien in de omgeving

TAF: PKMJ 190536Z 1906/2006 23009KT P6SM VCSH SCT015 BKN050 BKN120

Waarnemingen en weersverwachtingen van meer dan 4000 vliegvelden (METAR en TAF).

De beschikbare stations zijn de gele en rode punten op de kaart.

Ga met uw muis naar het station om de naam te zien.

Klik dan om waarnemingen en weersverwachtingen te zien.

kaart wijzigen: klik op de groene knoppen met een zwart kruis om in te zoomen, op de groene knop met een streepje om uit te zoomen of op de groene pijlen voor aangrenzende kaarten.


METAR-TAF: